sensor_id;sensor_type;location;lat;lon;timestamp;P1;durP1;ratioP1;P2;durP2;ratioP2
62848;SDS011;48941;49.516;8.286;2023-05-01T00:01:10;4.80;;;3.67;;
62848;SDS011;48941;49.516;8.286;2023-05-01T00:03:38;4.00;;;3.30;;
62848;SDS011;48941;49.516;8.286;2023-05-01T00:06:06;5.80;;;3.45;;
62848;SDS011;48941;49.516;8.286;2023-05-01T00:08:34;5.22;;;3.53;;
62848;SDS011;48941;49.516;8.286;2023-05-01T00:11:02;4.25;;;3.28;;
62848;SDS011;48941;49.516;8.286;2023-05-01T00:13:30;4.53;;;3.58;;
62848;SDS011;48941;49.516;8.286;2023-05-01T00:16:00;4.18;;;3.10;;
62848;SDS011;48941;49.516;8.286;2023-05-01T00:18:28;7.88;;;3.17;;
62848;SDS011;48941;49.516;8.286;2023-05-01T00:20:56;4.47;;;3.17;;
62848;SDS011;48941;49.516;8.286;2023-05-01T00:23:24;5.82;;;3.05;;
62848;SDS011;48941;49.516;8.286;2023-05-01T00:25:53;5.55;;;3.25;;
62848;SDS011;48941;49.516;8.286;2023-05-01T00:28:21;4.88;;;3.05;;
62848;SDS011;48941;49.516;8.286;2023-05-01T00:30:48;5.32;;;3.17;;
62848;SDS011;48941;49.516;8.286;2023-05-01T00:33:18;4.45;;;3.38;;
62848;SDS011;48941;49.516;8.286;2023-05-01T00:35:46;3.95;;;3.35;;
62848;SDS011;48941;49.516;8.286;2023-05-01T00:38:14;3.88;;;3.03;;
62848;SDS011;48941;49.516;8.286;2023-05-01T00:40:42;4.57;;;3.42;;
62848;SDS011;48941;49.516;8.286;2023-05-01T00:43:11;4.10;;;3.22;;
62848;SDS011;48941;49.516;8.286;2023-05-01T00:45:41;4.30;;;3.20;;
62848;SDS011;48941;49.516;8.286;2023-05-01T00:48:10;4.07;;;3.40;;
62848;SDS011;48941;49.516;8.286;2023-05-01T00:50:40;4.07;;;3.03;;
62848;SDS011;48941;49.516;8.286;2023-05-01T00:53:10;8.68;;;3.10;;
62848;SDS011;48941;49.516;8.286;2023-05-01T00:55:38;4.10;;;3.28;;
62848;SDS011;48941;49.516;8.286;2023-05-01T00:58:09;4.07;;;2.78;;
62848;SDS011;48941;49.516;8.286;2023-05-01T01:00:37;5.72;;;3.13;;
62848;SDS011;48941;49.516;8.286;2023-05-01T01:03:05;4.28;;;3.20;;
62848;SDS011;48941;49.516;8.286;2023-05-01T01:05:34;6.68;;;3.38;;
62848;SDS011;48941;49.516;8.286;2023-05-01T01:08:10;3.45;;;3.00;;
62848;SDS011;48941;49.516;8.286;2023-05-01T01:10:47;4.75;;;3.20;;
62848;SDS011;48941;49.516;8.286;2023-05-01T01:13:22;4.22;;;2.92;;
62848;SDS011;48941;49.516;8.286;2023-05-01T01:15:56;4.75;;;3.03;;
62848;SDS011;48941;49.516;8.286;2023-05-01T01:18:31;3.78;;;3.00;;
62848;SDS011;48941;49.516;8.286;2023-05-01T01:21:06;3.40;;;3.10;;
62848;SDS011;48941;49.516;8.286;2023-05-01T01:26:49;3.45;;;3.13;;
62848;SDS011;48941;49.516;8.286;2023-05-01T01:29:33;3.25;;;2.95;;
62848;SDS011;48941;49.516;8.286;2023-05-01T01:32:26;4.00;;;3.20;;
62848;SDS011;48941;49.516;8.286;2023-05-01T01:35:23;3.78;;;3.13;;
62848;SDS011;48941;49.516;8.286;2023-05-01T01:37:56;4.03;;;3.30;;
62848;SDS011;48941;49.516;8.286;2023-05-01T01:40:31;3.55;;;3.03;;
62848;SDS011;48941;49.516;8.286;2023-05-01T01:43:02;3.65;;;2.90;;
62848;SDS011;48941;49.516;8.286;2023-05-01T01:45:34;4.70;;;2.80;;
62848;SDS011;48941;49.516;8.286;2023-05-01T01:50:37;5.03;;;2.92;;
62848;SDS011;48941;49.516;8.286;2023-05-01T01:53:07;4.30;;;3.00;;
62848;SDS011;48941;49.516;8.286;2023-05-01T01:55:37;4.00;;;3.10;;
62848;SDS011;48941;49.516;8.286;2023-05-01T01:58:08;4.22;;;3.05;;
62848;SDS011;48941;49.516;8.286;2023-05-01T02:00:38;7.05;;;3.03;;
62848;SDS011;48941;49.516;8.286;2023-05-01T02:03:08;4.00;;;2.95;;
62848;SDS011;48941;49.516;8.286;2023-05-01T02:05:38;4.30;;;3.05;;
62848;SDS011;48941;49.516;8.286;2023-05-01T02:08:08;3.83;;;3.10;;
62848;SDS011;48941;49.516;8.286;2023-05-01T02:10:39;3.88;;;3.17;;
62848;SDS011;48941;49.516;8.286;2023-05-01T02:13:09;5.75;;;3.55;;
62848;SDS011;48941;49.516;8.286;2023-05-01T02:15:39;5.15;;;3.63;;
62848;SDS011;48941;49.516;8.286;2023-05-01T02:18:08;4.10;;;3.10;;
62848;SDS011;48941;49.516;8.286;2023-05-01T02:20:36;3.50;;;2.80;;
62848;SDS011;48941;49.516;8.286;2023-05-01T02:23:07;5.63;;;2.90;;
62848;SDS011;48941;49.516;8.286;2023-05-01T02:25:37;5.28;;;3.20;;
62848;SDS011;48941;49.516;8.286;2023-05-01T02:28:07;5.63;;;2.95;;
62848;SDS011;48941;49.516;8.286;2023-05-01T02:30:38;4.97;;;2.83;;
62848;SDS011;48941;49.516;8.286;2023-05-01T02:33:06;5.25;;;3.10;;
62848;SDS011;48941;49.516;8.286;2023-05-01T02:35:39;4.88;;;3.05;;
62848;SDS011;48941;49.516;8.286;2023-05-01T02:38:07;4.47;;;3.47;;
62848;SDS011;48941;49.516;8.286;2023-05-01T02:40:34;3.75;;;3.00;;
62848;SDS011;48941;49.516;8.286;2023-05-01T02:43:05;3.92;;;3.15;;
62848;SDS011;48941;49.516;8.286;2023-05-01T02:45:36;4.32;;;3.13;;
62848;SDS011;48941;49.516;8.286;2023-05-01T02:48:06;5.25;;;3.30;;
62848;SDS011;48941;49.516;8.286;2023-05-01T02:50:38;3.58;;;3.03;;
62848;SDS011;48941;49.516;8.286;2023-05-01T02:53:07;4.60;;;3.35;;
62848;SDS011;48941;49.516;8.286;2023-05-01T02:55:36;4.13;;;3.15;;
62848;SDS011;48941;49.516;8.286;2023-05-01T02:58:05;4.05;;;2.88;;
62848;SDS011;48941;49.516;8.286;2023-05-01T03:00:32;6.00;;;3.20;;
62848;SDS011;48941;49.516;8.286;2023-05-01T03:03:00;6.40;;;3.63;;
62848;SDS011;48941;49.516;8.286;2023-05-01T03:05:28;3.80;;;3.35;;
62848;SDS011;48941;49.516;8.286;2023-05-01T03:07:57;4.80;;;3.22;;
62848;SDS011;48941;49.516;8.286;2023-05-01T03:10:25;3.50;;;3.00;;
62848;SDS011;48941;49.516;8.286;2023-05-01T03:12:53;3.55;;;3.15;;
62848;SDS011;48941;49.516;8.286;2023-05-01T03:15:21;3.78;;;3.05;;
62848;SDS011;48941;49.516;8.286;2023-05-01T03:17:48;8.57;;;4.35;;
62848;SDS011;48941;49.516;8.286;2023-05-01T03:20:17;5.40;;;3.17;;
62848;SDS011;48941;49.516;8.286;2023-05-01T03:22:44;5.40;;;3.17;;
62848;SDS011;48941;49.516;8.286;2023-05-01T03:25:14;5.07;;;3.35;;
62848;SDS011;48941;49.516;8.286;2023-05-01T03:27:41;5.50;;;3.70;;
62848;SDS011;48941;49.516;8.286;2023-05-01T03:30:09;5.38;;;3.85;;
62848;SDS011;48941;49.516;8.286;2023-05-01T03:32:38;3.72;;;3.20;;
62848;SDS011;48941;49.516;8.286;2023-05-01T03:35:06;4.97;;;3.67;;
62848;SDS011;48941;49.516;8.286;2023-05-01T03:37:35;4.70;;;3.25;;
62848;SDS011;48941;49.516;8.286;2023-05-01T03:40:03;4.57;;;3.50;;
62848;SDS011;48941;49.516;8.286;2023-05-01T03:42:33;4.38;;;3.20;;
62848;SDS011;48941;49.516;8.286;2023-05-01T03:45:01;3.95;;;3.45;;
62848;SDS011;48941;49.516;8.286;2023-05-01T03:47:29;3.67;;;3.00;;
62848;SDS011;48941;49.516;8.286;2023-05-01T03:49:57;4.25;;;3.50;;
62848;SDS011;48941;49.516;8.286;2023-05-01T03:52:24;4.80;;;3.60;;
62848;SDS011;48941;49.516;8.286;2023-05-01T03:54:52;9.07;;;3.60;;
62848;SDS011;48941;49.516;8.286;2023-05-01T03:57:20;6.90;;;3.95;;
62848;SDS011;48941;49.516;8.286;2023-05-01T03:59:49;4.63;;;3.60;;
62848;SDS011;48941;49.516;8.286;2023-05-01T04:02:17;7.75;;;3.50;;
62848;SDS011;48941;49.516;8.286;2023-05-01T04:04:45;5.22;;;3.83;;
62848;SDS011;48941;49.516;8.286;2023-05-01T04:07:13;5.65;;;3.90;;
62848;SDS011;48941;49.516;8.286;2023-05-01T04:09:41;6.55;;;3.75;;
62848;SDS011;48941;49.516;8.286;2023-05-01T04:12:09;4.30;;;3.45;;
62848;SDS011;48941;49.516;8.286;2023-05-01T04:14:37;6.93;;;3.63;;
62848;SDS011;48941;49.516;8.286;2023-05-01T04:17:06;5.57;;;3.50;;
62848;SDS011;48941;49.516;8.286;2023-05-01T04:19:34;6.30;;;3.72;;
62848;SDS011;48941;49.516;8.286;2023-05-01T04:22:02;3.55;;;3.25;;
62848;SDS011;48941;49.516;8.286;2023-05-01T04:24:30;4.55;;;3.80;;
62848;SDS011;48941;49.516;8.286;2023-05-01T04:26:58;4.60;;;3.65;;
62848;SDS011;48941;49.516;8.286;2023-05-01T04:29:26;6.07;;;3.47;;
62848;SDS011;48941;49.516;8.286;2023-05-01T04:31:53;7.03;;;3.58;;
62848;SDS011;48941;49.516;8.286;2023-05-01T04:34:23;4.60;;;3.35;;
62848;SDS011;48941;49.516;8.286;2023-05-01T04:36:54;4.32;;;3.42;;
62848;SDS011;48941;49.516;8.286;2023-05-01T04:39:22;4.43;;;3.35;;
62848;SDS011;48941;49.516;8.286;2023-05-01T04:41:50;7.13;;;4.18;;
62848;SDS011;48941;49.516;8.286;2023-05-01T04:44:18;5.35;;;3.60;;
62848;SDS011;48941;49.516;8.286;2023-05-01T04:46:46;8.23;;;3.70;;
62848;SDS011;48941;49.516;8.286;2023-05-01T04:49:14;6.22;;;3.40;;
62848;SDS011;48941;49.516;8.286;2023-05-01T04:51:43;4.75;;;3.70;;
62848;SDS011;48941;49.516;8.286;2023-05-01T04:54:11;6.95;;;3.70;;
62848;SDS011;48941;49.516;8.286;2023-05-01T04:56:39;4.18;;;3.72;;
62848;SDS011;48941;49.516;8.286;2023-05-01T04:59:06;3.80;;;3.40;;
62848;SDS011;48941;49.516;8.286;2023-05-01T05:01:34;4.75;;;3.67;;
62848;SDS011;48941;49.516;8.286;2023-05-01T05:04:02;5.70;;;3.60;;
62848;SDS011;48941;49.516;8.286;2023-05-01T05:06:31;4.35;;;3.42;;
62848;SDS011;48941;49.516;8.286;2023-05-01T05:09:00;5.88;;;3.53;;
62848;SDS011;48941;49.516;8.286;2023-05-01T05:11:28;6.10;;;3.80;;
62848;SDS011;48941;49.516;8.286;2023-05-01T05:13:56;7.07;;;4.15;;
62848;SDS011;48941;49.516;8.286;2023-05-01T05:16:24;4.65;;;3.60;;
62848;SDS011;48941;49.516;8.286;2023-05-01T05:18:53;6.00;;;3.80;;
62848;SDS011;48941;49.516;8.286;2023-05-01T05:21:22;6.97;;;3.72;;
62848;SDS011;48941;49.516;8.286;2023-05-01T05:23:49;6.50;;;3.85;;
62848;SDS011;48941;49.516;8.286;2023-05-01T05:26:19;7.43;;;3.90;;
62848;SDS011;48941;49.516;8.286;2023-05-01T05:28:47;6.50;;;3.95;;
62848;SDS011;48941;49.516;8.286;2023-05-01T05:31:15;5.57;;;3.40;;
62848;SDS011;48941;49.516;8.286;2023-05-01T05:33:43;4.57;;;3.72;;
62848;SDS011;48941;49.516;8.286;2023-05-01T05:36:11;5.22;;;3.88;;
62848;SDS011;48941;49.516;8.286;2023-05-01T05:38:38;3.97;;;3.58;;
62848;SDS011;48941;49.516;8.286;2023-05-01T05:41:06;5.60;;;3.50;;
62848;SDS011;48941;49.516;8.286;2023-05-01T05:43:35;7.65;;;3.60;;
62848;SDS011;48941;49.516;8.286;2023-05-01T05:46:03;5.40;;;3.53;;
62848;SDS011;48941;49.516;8.286;2023-05-01T05:48:32;4.90;;;3.60;;
62848;SDS011;48941;49.516;8.286;2023-05-01T05:51:00;4.70;;;3.50;;
62848;SDS011;48941;49.516;8.286;2023-05-01T05:53:27;7.38;;;3.70;;
62848;SDS011;48941;49.516;8.286;2023-05-01T05:55:55;7.05;;;3.58;;
62848;SDS011;48941;49.516;8.286;2023-05-01T05:58:23;6.82;;;3.80;;
62848;SDS011;48941;49.516;8.286;2023-05-01T06:00:52;6.53;;;3.80;;
62848;SDS011;48941;49.516;8.286;2023-05-01T06:03:21;8.63;;;3.67;;
62848;SDS011;48941;49.516;8.286;2023-05-01T06:05:49;6.28;;;3.70;;
62848;SDS011;48941;49.516;8.286;2023-05-01T06:08:17;6.18;;;3.70;;
62848;SDS011;48941;49.516;8.286;2023-05-01T06:10:45;7.10;;;3.53;;
62848;SDS011;48941;49.516;8.286;2023-05-01T06:13:13;7.22;;;4.03;;
62848;SDS011;48941;49.516;8.286;2023-05-01T06:15:41;4.68;;;3.72;;
62848;SDS011;48941;49.516;8.286;2023-05-01T06:18:10;5.50;;;3.80;;
62848;SDS011;48941;49.516;8.286;2023-05-01T06:20:38;4.78;;;3.90;;
62848;SDS011;48941;49.516;8.286;2023-05-01T06:23:06;6.20;;;4.00;;
62848;SDS011;48941;49.516;8.286;2023-05-01T06:25:35;6.20;;;3.88;;
62848;SDS011;48941;49.516;8.286;2023-05-01T06:28:03;5.13;;;3.65;;
62848;SDS011;48941;49.516;8.286;2023-05-01T06:30:31;6.32;;;4.00;;
62848;SDS011;48941;49.516;8.286;2023-05-01T06:32:59;5.85;;;3.92;;
62848;SDS011;48941;49.516;8.286;2023-05-01T06:35:29;9.35;;;3.72;;
62848;SDS011;48941;49.516;8.286;2023-05-01T06:37:57;6.82;;;4.15;;
62848;SDS011;48941;49.516;8.286;2023-05-01T06:40:25;6.15;;;3.90;;
62848;SDS011;48941;49.516;8.286;2023-05-01T06:42:53;6.82;;;3.70;;
62848;SDS011;48941;49.516;8.286;2023-05-01T06:45:21;6.35;;;3.92;;
62848;SDS011;48941;49.516;8.286;2023-05-01T06:47:49;4.75;;;3.72;;
62848;SDS011;48941;49.516;8.286;2023-05-01T06:50:16;6.80;;;4.00;;
62848;SDS011;48941;49.516;8.286;2023-05-01T06:52:46;6.40;;;4.30;;
62848;SDS011;48941;49.516;8.286;2023-05-01T06:55:13;6.18;;;3.70;;
62848;SDS011;48941;49.516;8.286;2023-05-01T06:57:41;6.18;;;4.32;;
62848;SDS011;48941;49.516;8.286;2023-05-01T07:00:09;7.10;;;4.05;;
62848;SDS011;48941;49.516;8.286;2023-05-01T07:02:38;6.20;;;3.90;;
62848;SDS011;48941;49.516;8.286;2023-05-01T07:05:07;8.60;;;4.30;;
62848;SDS011;48941;49.516;8.286;2023-05-01T07:07:35;6.05;;;3.70;;
62848;SDS011;48941;49.516;8.286;2023-05-01T07:10:11;7.15;;;3.85;;
62848;SDS011;48941;49.516;8.286;2023-05-01T07:12:39;7.43;;;4.15;;
62848;SDS011;48941;49.516;8.286;2023-05-01T07:15:07;7.30;;;3.90;;
62848;SDS011;48941;49.516;8.286;2023-05-01T07:17:35;6.65;;;4.13;;
62848;SDS011;48941;49.516;8.286;2023-05-01T07:20:03;7.05;;;4.47;;
62848;SDS011;48941;49.516;8.286;2023-05-01T07:22:31;6.05;;;3.80;;
62848;SDS011;48941;49.516;8.286;2023-05-01T07:24:59;5.00;;;3.88;;
62848;SDS011;48941;49.516;8.286;2023-05-01T07:27:29;8.88;;;4.20;;
62848;SDS011;48941;49.516;8.286;2023-05-01T07:29:57;5.90;;;3.83;;
62848;SDS011;48941;49.516;8.286;2023-05-01T07:32:26;6.97;;;3.83;;
62848;SDS011;48941;49.516;8.286;2023-05-01T07:34:54;8.43;;;4.18;;
62848;SDS011;48941;49.516;8.286;2023-05-01T07:37:22;6.85;;;4.35;;
62848;SDS011;48941;49.516;8.286;2023-05-01T07:39:52;8.18;;;4.10;;
62848;SDS011;48941;49.516;8.286;2023-05-01T07:42:20;4.35;;;3.95;;
62848;SDS011;48941;49.516;8.286;2023-05-01T07:44:50;8.73;;;4.30;;
62848;SDS011;48941;49.516;8.286;2023-05-01T07:47:18;8.52;;;4.38;;
62848;SDS011;48941;49.516;8.286;2023-05-01T07:49:45;5.75;;;4.20;;
62848;SDS011;48941;49.516;8.286;2023-05-01T07:52:13;6.13;;;4.35;;
62848;SDS011;48941;49.516;8.286;2023-05-01T07:54:41;6.75;;;4.43;;
62848;SDS011;48941;49.516;8.286;2023-05-01T07:57:09;5.28;;;4.40;;
62848;SDS011;48941;49.516;8.286;2023-05-01T07:59:37;5.35;;;4.40;;
62848;SDS011;48941;49.516;8.286;2023-05-01T08:02:06;8.48;;;5.00;;
62848;SDS011;48941;49.516;8.286;2023-05-01T08:04:34;7.45;;;4.10;;
62848;SDS011;48941;49.516;8.286;2023-05-01T08:07:02;5.68;;;4.22;;
62848;SDS011;48941;49.516;8.286;2023-05-01T08:09:29;5.70;;;4.18;;
62848;SDS011;48941;49.516;8.286;2023-05-01T08:11:57;4.85;;;4.20;;
62848;SDS011;48941;49.516;8.286;2023-05-01T08:14:25;4.72;;;3.95;;
62848;SDS011;48941;49.516;8.286;2023-05-01T08:16:53;7.50;;;3.90;;
62848;SDS011;48941;49.516;8.286;2023-05-01T08:19:22;5.00;;;4.18;;
62848;SDS011;48941;49.516;8.286;2023-05-01T08:21:50;6.50;;;4.28;;
62848;SDS011;48941;49.516;8.286;2023-05-01T08:24:18;5.53;;;4.35;;
62848;SDS011;48941;49.516;8.286;2023-05-01T08:26:46;5.22;;;4.63;;
62848;SDS011;48941;49.516;8.286;2023-05-01T08:29:14;5.47;;;4.47;;
62848;SDS011;48941;49.516;8.286;2023-05-01T08:31:42;6.90;;;4.18;;
62848;SDS011;48941;49.516;8.286;2023-05-01T08:34:10;11.20;;;4.55;;
62848;SDS011;48941;49.516;8.286;2023-05-01T08:36:39;8.35;;;4.35;;
62848;SDS011;48941;49.516;8.286;2023-05-01T08:39:07;8.35;;;4.40;;
62848;SDS011;48941;49.516;8.286;2023-05-01T08:41:34;5.30;;;4.50;;
62848;SDS011;48941;49.516;8.286;2023-05-01T08:44:05;6.75;;;4.60;;
62848;SDS011;48941;49.516;8.286;2023-05-01T08:46:37;8.43;;;4.40;;
62848;SDS011;48941;49.516;8.286;2023-05-01T08:49:13;6.68;;;4.60;;
62848;SDS011;48941;49.516;8.286;2023-05-01T08:51:44;7.47;;;4.60;;
62848;SDS011;48941;49.516;8.286;2023-05-01T08:54:13;11.13;;;4.32;;
62848;SDS011;48941;49.516;8.286;2023-05-01T08:56:42;6.95;;;4.55;;
62848;SDS011;48941;49.516;8.286;2023-05-01T08:59:12;5.05;;;4.47;;
62848;SDS011;48941;49.516;8.286;2023-05-01T09:01:41;6.63;;;4.85;;
62848;SDS011;48941;49.516;8.286;2023-05-01T09:04:10;6.90;;;4.65;;
62848;SDS011;48941;49.516;8.286;2023-05-01T09:06:40;7.13;;;4.38;;
62848;SDS011;48941;49.516;8.286;2023-05-01T09:09:11;6.18;;;5.25;;
62848;SDS011;48941;49.516;8.286;2023-05-01T09:11:39;6.32;;;4.57;;
62848;SDS011;48941;49.516;8.286;2023-05-01T09:14:09;6.28;;;4.55;;
62848;SDS011;48941;49.516;8.286;2023-05-01T09:16:38;6.28;;;4.45;;
62848;SDS011;48941;49.516;8.286;2023-05-01T09:19:06;8.18;;;5.07;;
62848;SDS011;48941;49.516;8.286;2023-05-01T09:21:33;17.60;;;4.97;;
62848;SDS011;48941;49.516;8.286;2023-05-01T09:24:01;5.70;;;5.10;;
62848;SDS011;48941;49.516;8.286;2023-05-01T09:26:30;8.23;;;5.20;;
62848;SDS011;48941;49.516;8.286;2023-05-01T09:28:59;6.65;;;4.93;;
62848;SDS011;48941;49.516;8.286;2023-05-01T09:31:28;10.15;;;5.25;;
62848;SDS011;48941;49.516;8.286;2023-05-01T09:33:58;7.63;;;5.30;;
62848;SDS011;48941;49.516;8.286;2023-05-01T09:36:28;6.40;;;5.30;;
62848;SDS011;48941;49.516;8.286;2023-05-01T09:38:57;5.95;;;5.15;;
62848;SDS011;48941;49.516;8.286;2023-05-01T09:41:26;10.40;;;5.13;;
62848;SDS011;48941;49.516;8.286;2023-05-01T09:43:58;7.72;;;5.18;;
62848;SDS011;48941;49.516;8.286;2023-05-01T09:46:26;7.55;;;5.50;;
62848;SDS011;48941;49.516;8.286;2023-05-01T09:48:55;6.53;;;5.40;;
62848;SDS011;48941;49.516;8.286;2023-05-01T09:51:25;7.68;;;5.13;;
62848;SDS011;48941;49.516;8.286;2023-05-01T09:53:55;6.10;;;5.13;;
62848;SDS011;48941;49.516;8.286;2023-05-01T09:56:24;6.50;;;5.30;;
62848;SDS011;48941;49.516;8.286;2023-05-01T09:58:53;6.45;;;5.18;;
62848;SDS011;48941;49.516;8.286;2023-05-01T10:01:38;7.63;;;5.10;;
62848;SDS011;48941;49.516;8.286;2023-05-01T10:04:07;6.65;;;4.75;;
62848;SDS011;48941;49.516;8.286;2023-05-01T10:06:36;5.63;;;4.60;;
62848;SDS011;48941;49.516;8.286;2023-05-01T10:09:04;5.40;;;4.80;;
62848;SDS011;48941;49.516;8.286;2023-05-01T10:11:48;6.15;;;5.15;;
62848;SDS011;48941;49.516;8.286;2023-05-01T10:14:19;6.00;;;5.07;;
62848;SDS011;48941;49.516;8.286;2023-05-01T10:16:50;7.13;;;5.00;;
62848;SDS011;48941;49.516;8.286;2023-05-01T10:19:19;6.20;;;4.70;;
62848;SDS011;48941;49.516;8.286;2023-05-01T10:21:47;6.72;;;5.28;;
62848;SDS011;48941;49.516;8.286;2023-05-01T10:24:15;6.35;;;4.93;;
62848;SDS011;48941;49.516;8.286;2023-05-01T10:26:43;6.03;;;4.90;;
62848;SDS011;48941;49.516;8.286;2023-05-01T10:29:14;5.30;;;4.65;;
62848;SDS011;48941;49.516;8.286;2023-05-01T10:31:42;5.90;;;4.38;;
62848;SDS011;48941;49.516;8.286;2023-05-01T10:34:12;6.78;;;4.65;;
62848;SDS011;48941;49.516;8.286;2023-05-01T10:36:45;6.07;;;5.00;;
62848;SDS011;48941;49.516;8.286;2023-05-01T10:42:07;5.20;;;4.60;;
62848;SDS011;48941;49.516;8.286;2023-05-01T10:44:40;7.40;;;4.80;;
62848;SDS011;48941;49.516;8.286;2023-05-01T10:50:12;6.90;;;4.82;;
62848;SDS011;48941;49.516;8.286;2023-05-01T10:55:43;7.00;;;5.07;;
62848;SDS011;48941;49.516;8.286;2023-05-01T10:58:13;7.10;;;5.00;;
62848;SDS011;48941;49.516;8.286;2023-05-01T11:06:22;6.05;;;4.72;;
62848;SDS011;48941;49.516;8.286;2023-05-01T11:08:51;9.80;;;5.28;;
62848;SDS011;48941;49.516;8.286;2023-05-01T11:14:14;5.00;;;4.35;;
62848;SDS011;48941;49.516;8.286;2023-05-01T11:16:43;6.22;;;4.60;;
62848;SDS011;48941;49.516;8.286;2023-05-01T11:22:14;8.35;;;5.10;;
62848;SDS011;48941;49.516;8.286;2023-05-01T11:24:42;5.50;;;4.80;;
62848;SDS011;48941;49.516;8.286;2023-05-01T11:27:13;6.20;;;4.70;;
62848;SDS011;48941;49.516;8.286;2023-05-01T11:29:43;8.10;;;4.93;;
62848;SDS011;48941;49.516;8.286;2023-05-01T11:32:15;6.15;;;5.30;;
62848;SDS011;48941;49.516;8.286;2023-05-01T11:34:46;7.18;;;4.97;;
62848;SDS011;48941;49.516;8.286;2023-05-01T11:37:17;6.03;;;5.43;;
62848;SDS011;48941;49.516;8.286;2023-05-01T11:39:46;6.50;;;5.10;;
62848;SDS011;48941;49.516;8.286;2023-05-01T11:42:15;5.97;;;5.03;;
62848;SDS011;48941;49.516;8.286;2023-05-01T11:47:33;6.43;;;5.13;;
62848;SDS011;48941;49.516;8.286;2023-05-01T11:50:01;8.05;;;4.78;;
62848;SDS011;48941;49.516;8.286;2023-05-01T11:52:30;5.88;;;4.68;;
62848;SDS011;48941;49.516;8.286;2023-05-01T11:55:08;5.63;;;4.65;;
62848;SDS011;48941;49.516;8.286;2023-05-01T11:57:46;8.15;;;4.35;;
62848;SDS011;48941;49.516;8.286;2023-05-01T12:00:15;6.07;;;4.72;;
62848;SDS011;48941;49.516;8.286;2023-05-01T12:02:55;7.85;;;4.70;;
62848;SDS011;48941;49.516;8.286;2023-05-01T12:08:05;5.57;;;4.57;;
62848;SDS011;48941;49.516;8.286;2023-05-01T12:10:36;6.72;;;4.78;;
62848;SDS011;48941;49.516;8.286;2023-05-01T12:13:06;6.63;;;5.00;;
62848;SDS011;48941;49.516;8.286;2023-05-01T12:15:35;4.30;;;3.90;;
62848;SDS011;48941;49.516;8.286;2023-05-01T12:18:04;6.88;;;4.30;;
62848;SDS011;48941;49.516;8.286;2023-05-01T12:20:33;6.60;;;4.00;;
62848;SDS011;48941;49.516;8.286;2023-05-01T12:23:02;4.43;;;3.85;;
62848;SDS011;48941;49.516;8.286;2023-05-01T12:25:33;6.28;;;3.80;;
62848;SDS011;48941;49.516;8.286;2023-05-01T12:28:01;7.18;;;3.38;;
62848;SDS011;48941;49.516;8.286;2023-05-01T12:30:30;4.80;;;4.00;;
62848;SDS011;48941;49.516;8.286;2023-05-01T12:32:58;4.40;;;4.00;;
62848;SDS011;48941;49.516;8.286;2023-05-01T12:35:34;4.43;;;3.88;;
62848;SDS011;48941;49.516;8.286;2023-05-01T12:38:08;6.30;;;3.60;;
62848;SDS011;48941;49.516;8.286;2023-05-01T12:40:39;9.70;;;3.80;;
62848;SDS011;48941;49.516;8.286;2023-05-01T12:43:16;4.22;;;3.45;;
62848;SDS011;48941;49.516;8.286;2023-05-01T12:45:44;4.43;;;3.90;;
62848;SDS011;48941;49.516;8.286;2023-05-01T12:48:17;5.93;;;4.00;;
62848;SDS011;48941;49.516;8.286;2023-05-01T12:50:46;5.70;;;4.07;;
62848;SDS011;48941;49.516;8.286;2023-05-01T12:53:19;4.00;;;3.58;;
62848;SDS011;48941;49.516;8.286;2023-05-01T12:55:50;6.05;;;4.20;;
62848;SDS011;48941;49.516;8.286;2023-05-01T12:58:19;5.28;;;4.57;;
62848;SDS011;48941;49.516;8.286;2023-05-01T13:00:47;4.82;;;4.32;;
62848;SDS011;48941;49.516;8.286;2023-05-01T13:03:19;6.70;;;4.30;;
62848;SDS011;48941;49.516;8.286;2023-05-01T13:05:54;5.72;;;4.20;;
62848;SDS011;48941;49.516;8.286;2023-05-01T13:08:24;4.55;;;3.85;;
62848;SDS011;48941;49.516;8.286;2023-05-01T13:10:56;4.32;;;3.60;;
62848;SDS011;48941;49.516;8.286;2023-05-01T13:13:25;4.80;;;3.90;;
62848;SDS011;48941;49.516;8.286;2023-05-01T13:16:05;4.70;;;4.10;;
62848;SDS011;48941;49.516;8.286;2023-05-01T13:18:42;5.65;;;4.45;;
62848;SDS011;48941;49.516;8.286;2023-05-01T13:21:12;5.00;;;3.83;;
62848;SDS011;48941;49.516;8.286;2023-05-01T13:23:42;5.80;;;4.22;;
62848;SDS011;48941;49.516;8.286;2023-05-01T13:26:30;6.47;;;4.57;;
62848;SDS011;48941;49.516;8.286;2023-05-01T13:29:01;4.73;;;4.07;;
62848;SDS011;48941;49.516;8.286;2023-05-01T13:31:31;7.55;;;4.05;;
62848;SDS011;48941;49.516;8.286;2023-05-01T13:33:58;4.18;;;3.72;;
62848;SDS011;48941;49.516;8.286;2023-05-01T13:36:29;4.55;;;3.95;;
62848;SDS011;48941;49.516;8.286;2023-05-01T13:38:58;4.95;;;3.90;;
62848;SDS011;48941;49.516;8.286;2023-05-01T13:41:26;5.68;;;4.00;;
62848;SDS011;48941;49.516;8.286;2023-05-01T13:43:56;4.22;;;3.80;;
62848;SDS011;48941;49.516;8.286;2023-05-01T13:46:24;6.43;;;3.50;;
62848;SDS011;48941;49.516;8.286;2023-05-01T13:48:53;6.00;;;4.00;;
62848;SDS011;48941;49.516;8.286;2023-05-01T13:51:22;5.00;;;4.05;;
62848;SDS011;48941;49.516;8.286;2023-05-01T13:53:51;5.28;;;4.10;;
62848;SDS011;48941;49.516;8.286;2023-05-01T13:56:19;5.90;;;3.92;;
62848;SDS011;48941;49.516;8.286;2023-05-01T13:58:48;4.10;;;3.70;;
62848;SDS011;48941;49.516;8.286;2023-05-01T14:01:18;5.10;;;3.58;;
62848;SDS011;48941;49.516;8.286;2023-05-01T14:03:48;3.65;;;3.20;;
62848;SDS011;48941;49.516;8.286;2023-05-01T14:06:17;4.55;;;3.33;;
62848;SDS011;48941;49.516;8.286;2023-05-01T14:08:46;5.78;;;3.58;;
62848;SDS011;48941;49.516;8.286;2023-05-01T14:11:15;4.93;;;3.30;;
62848;SDS011;48941;49.516;8.286;2023-05-01T14:13:43;5.45;;;3.42;;
62848;SDS011;48941;49.516;8.286;2023-05-01T14:16:15;4.20;;;3.30;;
62848;SDS011;48941;49.516;8.286;2023-05-01T14:18:51;4.07;;;3.17;;
62848;SDS011;48941;49.516;8.286;2023-05-01T14:21:22;3.65;;;3.15;;
62848;SDS011;48941;49.516;8.286;2023-05-01T14:23:52;3.92;;;3.30;;
62848;SDS011;48941;49.516;8.286;2023-05-01T14:26:21;4.75;;;3.28;;
62848;SDS011;48941;49.516;8.286;2023-05-01T14:28:50;5.60;;;3.38;;
62848;SDS011;48941;49.516;8.286;2023-05-01T14:31:24;3.25;;;2.90;;
62848;SDS011;48941;49.516;8.286;2023-05-01T14:33:54;4.43;;;3.30;;
62848;SDS011;48941;49.516;8.286;2023-05-01T14:36:23;5.65;;;3.30;;
62848;SDS011;48941;49.516;8.286;2023-05-01T14:38:54;3.58;;;2.67;;
62848;SDS011;48941;49.516;8.286;2023-05-01T14:41:22;4.35;;;3.15;;
62848;SDS011;48941;49.516;8.286;2023-05-01T14:43:51;5.65;;;3.10;;
62848;SDS011;48941;49.516;8.286;2023-05-01T14:46:24;5.85;;;3.42;;
62848;SDS011;48941;49.516;8.286;2023-05-01T14:48:57;4.50;;;3.00;;
62848;SDS011;48941;49.516;8.286;2023-05-01T14:51:26;5.10;;;2.88;;
62848;SDS011;48941;49.516;8.286;2023-05-01T14:53:56;4.30;;;3.28;;
62848;SDS011;48941;49.516;8.286;2023-05-01T14:56:24;4.45;;;3.33;;
62848;SDS011;48941;49.516;8.286;2023-05-01T14:58:52;3.40;;;3.10;;
62848;SDS011;48941;49.516;8.286;2023-05-01T15:01:20;3.85;;;3.05;;
62848;SDS011;48941;49.516;8.286;2023-05-01T15:03:49;4.40;;;3.38;;
62848;SDS011;48941;49.516;8.286;2023-05-01T15:06:18;6.60;;;3.38;;
62848;SDS011;48941;49.516;8.286;2023-05-01T15:08:46;4.72;;;3.30;;
62848;SDS011;48941;49.516;8.286;2023-05-01T15:11:14;5.07;;;3.38;;
62848;SDS011;48941;49.516;8.286;2023-05-01T15:13:43;7.70;;;3.25;;
62848;SDS011;48941;49.516;8.286;2023-05-01T15:16:12;3.80;;;3.08;;
62848;SDS011;48941;49.516;8.286;2023-05-01T15:18:41;3.05;;;2.72;;
62848;SDS011;48941;49.516;8.286;2023-05-01T15:21:10;2.95;;;2.60;;
62848;SDS011;48941;49.516;8.286;2023-05-01T15:23:38;6.00;;;3.10;;
62848;SDS011;48941;49.516;8.286;2023-05-01T15:26:10;4.72;;;3.00;;
62848;SDS011;48941;49.516;8.286;2023-05-01T15:28:38;8.13;;;3.20;;
62848;SDS011;48941;49.516;8.286;2023-05-01T15:31:06;2.83;;;2.63;;
62848;SDS011;48941;49.516;8.286;2023-05-01T15:33:34;5.90;;;2.80;;